Dobbin, Texas
Current Conditions -  °F | °C
As of 10:53 PM on Friday 19 Dec 2014 (Local Time) from KCXO Reporting Station
Overcast Overcast  
Wind Chill: 51°   Ceiling: 700
Heat Index: 51°   Visibility: 10mi
Dew Point: 48°   Wind: 7mph
Humidity: 89%   Direction: 360°N
Pressure: 30.15"   Gusts: NA
Location:  30.37°N, 95.78°W
Report Text: KCXO 200453Z AUTO 36006KT 10SM OVC007 11/09 A3015 RMK AO2 SLP208 T01060089
Loading
Personal Weather Stations






























Interactive Weather Map New forecast layout! Learn more

10-Day Weather Forecast

Advertisements
Track Severe Weather on mobile